Terminal Aerodrome Forecast
Issued by NWS Blacksburg, VA

Current Version | Previous Version | Text Only | Print | Product List | Glossary Off
Versions: 1 2 3 4 5 6 7 8 9 10 11 12 13 14 15 16 17 18 19 20 21 22 23 24 25 26

000
FTUS41 KRNK 210530
TAFBLF
TAF
KBLF 210530Z 2106/2206 29010G20KT P6SM SCT020
      TEMPO 2109/2113 BKN020
     FM212000 30008KT P6SM SKC
     FM220000 VRB04KT P6SM SKC=

USA.gov is the U.S. government's official web portal to all federal, state and local government web resources and services.